sensor_id;sensor_type;location;lat;lon;timestamp;pressure;altitude;pressure_sealevel;temperature;humidity
1926;BME280;964;42.606;23.588;2023-04-20T00:02:20;94128.63;;;30.13;27.80
1926;BME280;964;42.606;23.588;2023-04-20T00:04:47;94125.47;;;30.20;27.86
1926;BME280;964;42.606;23.588;2023-04-20T00:07:15;94119.66;;;30.81;27.25
1926;BME280;964;42.606;23.588;2023-04-20T00:09:42;94115.28;;;30.57;27.13
1926;BME280;964;42.606;23.588;2023-04-20T00:12:08;94116.72;;;30.47;27.29
1926;BME280;964;42.606;23.588;2023-04-20T00:14:35;94111.50;;;30.49;26.96
1926;BME280;964;42.606;23.588;2023-04-20T00:17:02;94104.88;;;30.61;26.90
1926;BME280;964;42.606;23.588;2023-04-20T00:19:29;94108.78;;;30.49;26.90
1926;BME280;964;42.606;23.588;2023-04-20T00:21:57;94118.38;;;30.02;27.73
1926;BME280;964;42.606;23.588;2023-04-20T00:24:26;94101.66;;;30.26;27.41
1926;BME280;964;42.606;23.588;2023-04-20T00:26:52;94100.44;;;29.96;27.57
1926;BME280;964;42.606;23.588;2023-04-20T00:29:20;94096.72;;;30.30;27.53
1926;BME280;964;42.606;23.588;2023-04-20T00:31:47;94092.94;;;30.22;27.70
1926;BME280;964;42.606;23.588;2023-04-20T00:34:13;94096.63;;;30.19;27.25
1926;BME280;964;42.606;23.588;2023-04-20T00:36:40;94087.72;;;30.24;27.57
1926;BME280;964;42.606;23.588;2023-04-20T00:39:07;94104.63;;;30.59;27.27
1926;BME280;964;42.606;23.588;2023-04-20T00:41:36;94094.31;;;30.06;27.46
1926;BME280;964;42.606;23.588;2023-04-20T00:44:06;94090.03;;;30.00;27.82
1926;BME280;964;42.606;23.588;2023-04-20T00:46:35;94100.28;;;30.05;27.48
1926;BME280;964;42.606;23.588;2023-04-20T00:49:03;94093.34;;;30.46;27.38
1926;BME280;964;42.606;23.588;2023-04-20T00:51:30;94097.84;;;30.49;27.19
1926;BME280;964;42.606;23.588;2023-04-20T00:53:57;94091.03;;;30.39;27.04
1926;BME280;964;42.606;23.588;2023-04-20T00:56:25;94093.78;;;30.39;27.01
1926;BME280;964;42.606;23.588;2023-04-20T00:58:53;94097.97;;;30.35;27.30
1926;BME280;964;42.606;23.588;2023-04-20T01:01:20;94092.81;;;30.42;27.13
1926;BME280;964;42.606;23.588;2023-04-20T01:03:47;94094.97;;;30.33;27.20
1926;BME280;964;42.606;23.588;2023-04-20T01:06:14;94093.34;;;30.46;27.04
1926;BME280;964;42.606;23.588;2023-04-20T01:08:45;94091.88;;;30.45;26.94
1926;BME280;964;42.606;23.588;2023-04-20T01:11:13;94106.75;;;29.82;27.62
1926;BME280;964;42.606;23.588;2023-04-20T01:13:39;94103.69;;;30.00;27.11
1926;BME280;964;42.606;23.588;2023-04-20T01:16:08;94100.22;;;29.99;27.23
1926;BME280;964;42.606;23.588;2023-04-20T01:18:43;94099.00;;;30.06;27.25
1926;BME280;964;42.606;23.588;2023-04-20T01:21:11;94095.81;;;30.07;26.85
1926;BME280;964;42.606;23.588;2023-04-20T01:23:39;94097.09;;;30.12;27.00
1926;BME280;964;42.606;23.588;2023-04-20T01:26:07;94093.03;;;30.02;27.21
1926;BME280;964;42.606;23.588;2023-04-20T01:28:34;94099.38;;;29.88;27.22
1926;BME280;964;42.606;23.588;2023-04-20T01:31:01;94092.69;;;29.89;27.21
1926;BME280;964;42.606;23.588;2023-04-20T01:33:28;94093.19;;;29.61;27.63
1926;BME280;964;42.606;23.588;2023-04-20T01:35:55;94093.09;;;29.82;27.28
1926;BME280;964;42.606;23.588;2023-04-20T01:38:23;94094.75;;;29.74;27.04
1926;BME280;964;42.606;23.588;2023-04-20T01:40:52;94086.00;;;29.38;27.38
1926;BME280;964;42.606;23.588;2023-04-20T01:43:20;94082.06;;;28.99;27.98
1926;BME280;964;42.606;23.588;2023-04-20T01:45:47;94085.91;;;29.07;28.04
1926;BME280;964;42.606;23.588;2023-04-20T01:48:14;94087.00;;;28.40;28.62
1926;BME280;964;42.606;23.588;2023-04-20T01:50:41;94080.03;;;28.94;27.86
1926;BME280;964;42.606;23.588;2023-04-20T01:53:08;94091.03;;;28.09;28.75
1926;BME280;964;42.606;23.588;2023-04-20T01:55:35;94085.19;;;28.16;28.91
1926;BME280;964;42.606;23.588;2023-04-20T01:58:03;94078.25;;;28.01;29.20
1926;BME280;964;42.606;23.588;2023-04-20T02:00:30;94074.13;;;28.60;28.17
1926;BME280;964;42.606;23.588;2023-04-20T02:02:57;94079.19;;;27.98;29.04
1926;BME280;964;42.606;23.588;2023-04-20T02:05:24;94072.94;;;26.95;30.15
1926;BME280;964;42.606;23.588;2023-04-20T02:07:51;94072.47;;;27.49;29.58
1926;BME280;964;42.606;23.588;2023-04-20T02:10:18;94068.13;;;27.87;28.93
1926;BME280;964;42.606;23.588;2023-04-20T02:12:45;94065.69;;;28.58;28.24
1926;BME280;964;42.606;23.588;2023-04-20T02:15:13;94055.41;;;28.48;28.16
1926;BME280;964;42.606;23.588;2023-04-20T02:17:40;94058.53;;;28.61;28.14
1926;BME280;964;42.606;23.588;2023-04-20T02:20:09;94068.63;;;28.20;28.61
1926;BME280;964;42.606;23.588;2023-04-20T02:22:37;94077.53;;;27.71;29.07
1926;BME280;964;42.606;23.588;2023-04-20T02:25:05;94068.94;;;28.42;27.89
1926;BME280;964;42.606;23.588;2023-04-20T02:27:32;94071.97;;;28.64;27.81
1926;BME280;964;42.606;23.588;2023-04-20T02:29:59;94080.16;;;27.65;28.38
1926;BME280;964;42.606;23.588;2023-04-20T02:32:27;94088.59;;;27.97;28.53
1926;BME280;964;42.606;23.588;2023-04-20T02:34:54;94090.41;;;27.03;29.46
1926;BME280;964;42.606;23.588;2023-04-20T02:37:21;94087.97;;;26.57;30.03
1926;BME280;964;42.606;23.588;2023-04-20T02:39:48;94088.78;;;27.93;28.38
1926;BME280;964;42.606;23.588;2023-04-20T02:42:15;94084.66;;;27.83;28.66
1926;BME280;964;42.606;23.588;2023-04-20T02:44:41;94082.16;;;28.29;27.99
1926;BME280;964;42.606;23.588;2023-04-20T02:47:08;94077.81;;;28.37;27.94
1926;BME280;964;42.606;23.588;2023-04-20T02:49:36;94087.09;;;28.45;27.91
1926;BME280;964;42.606;23.588;2023-04-20T02:52:03;94090.44;;;27.91;28.30
1926;BME280;964;42.606;23.588;2023-04-20T02:54:30;94074.03;;;28.90;27.37
1926;BME280;964;42.606;23.588;2023-04-20T02:56:57;94080.13;;;28.64;27.44
1926;BME280;964;42.606;23.588;2023-04-20T02:59:24;94065.41;;;28.97;27.19
1926;BME280;964;42.606;23.588;2023-04-20T03:01:51;94075.53;;;28.91;26.81
1926;BME280;964;42.606;23.588;2023-04-20T03:04:17;94071.31;;;28.69;27.47
1926;BME280;964;42.606;23.588;2023-04-20T03:06:48;94085.75;;;28.76;27.31
1926;BME280;964;42.606;23.588;2023-04-20T03:09:15;94085.84;;;28.46;27.34
1926;BME280;964;42.606;23.588;2023-04-20T03:11:43;94086.09;;;28.28;27.73
1926;BME280;964;42.606;23.588;2023-04-20T03:14:10;94086.31;;;28.80;27.02
1926;BME280;964;42.606;23.588;2023-04-20T03:16:37;94080.72;;;28.68;27.16
1926;BME280;964;42.606;23.588;2023-04-20T03:19:04;94076.63;;;28.99;27.04
1926;BME280;964;42.606;23.588;2023-04-20T03:21:30;94083.56;;;28.59;27.53
1926;BME280;964;42.606;23.588;2023-04-20T03:23:59;94082.22;;;28.69;27.34
1926;BME280;964;42.606;23.588;2023-04-20T03:26:26;94082.47;;;28.51;27.30
1926;BME280;964;42.606;23.588;2023-04-20T03:28:53;94078.09;;;28.59;27.33
1926;BME280;964;42.606;23.588;2023-04-20T03:31:20;94084.53;;;28.97;26.89
1926;BME280;964;42.606;23.588;2023-04-20T03:33:47;94086.25;;;28.39;27.60
1926;BME280;964;42.606;23.588;2023-04-20T03:36:14;94088.06;;;28.62;27.48
1926;BME280;964;42.606;23.588;2023-04-20T03:38:42;94089.22;;;28.96;27.24
1926;BME280;964;42.606;23.588;2023-04-20T03:41:10;94090.06;;;29.48;26.47
1926;BME280;964;42.606;23.588;2023-04-20T03:43:37;94082.78;;;29.40;26.63
1926;BME280;964;42.606;23.588;2023-04-20T03:46:04;94084.97;;;29.61;26.31
1926;BME280;964;42.606;23.588;2023-04-20T03:48:31;94081.81;;;29.68;26.63
1926;BME280;964;42.606;23.588;2023-04-20T03:50:58;94084.41;;;29.83;26.14
1926;BME280;964;42.606;23.588;2023-04-20T03:53:25;94080.31;;;29.99;26.40
1926;BME280;964;42.606;23.588;2023-04-20T03:55:53;94084.97;;;30.24;26.06
1926;BME280;964;42.606;23.588;2023-04-20T03:58:21;94094.16;;;30.21;26.14
1926;BME280;964;42.606;23.588;2023-04-20T04:00:48;94091.84;;;30.08;26.29
1926;BME280;964;42.606;23.588;2023-04-20T04:03:15;94092.81;;;30.42;25.93
1926;BME280;964;42.606;23.588;2023-04-20T04:05:42;94090.69;;;29.89;26.55
1926;BME280;964;42.606;23.588;2023-04-20T04:08:11;94097.34;;;29.57;27.02
1926;BME280;964;42.606;23.588;2023-04-20T04:10:38;94096.50;;;30.02;26.38
1926;BME280;964;42.606;23.588;2023-04-20T04:13:05;94104.19;;;29.73;26.81
1926;BME280;964;42.606;23.588;2023-04-20T04:15:33;94109.56;;;29.61;26.81
1926;BME280;964;42.606;23.588;2023-04-20T04:18:00;94107.19;;;30.00;26.30
1926;BME280;964;42.606;23.588;2023-04-20T04:20:27;94105.66;;;29.94;26.44
1926;BME280;964;42.606;23.588;2023-04-20T04:22:54;94097.31;;;30.08;26.13
1926;BME280;964;42.606;23.588;2023-04-20T04:25:21;94102.94;;;30.31;25.95
1926;BME280;964;42.606;23.588;2023-04-20T04:27:48;94102.84;;;30.20;25.77
1926;BME280;964;42.606;23.588;2023-04-20T04:30:16;94106.50;;;30.11;25.98
1926;BME280;964;42.606;23.588;2023-04-20T04:32:45;94105.91;;;30.27;26.06
1926;BME280;964;42.606;23.588;2023-04-20T04:35:13;94102.81;;;30.45;26.04
1926;BME280;964;42.606;23.588;2023-04-20T04:37:40;94117.97;;;29.84;26.91
1926;BME280;964;42.606;23.588;2023-04-20T04:40:08;94107.03;;;30.15;25.84
1926;BME280;964;42.606;23.588;2023-04-20T04:42:35;94113.59;;;30.60;25.51
1926;BME280;964;42.606;23.588;2023-04-20T04:45:04;94114.75;;;30.53;25.71
1926;BME280;964;42.606;23.588;2023-04-20T04:47:34;94121.97;;;30.51;26.00
1926;BME280;964;42.606;23.588;2023-04-20T04:50:02;94113.75;;;30.45;26.15
1926;BME280;964;42.606;23.588;2023-04-20T04:52:31;94120.16;;;30.42;26.06
1926;BME280;964;42.606;23.588;2023-04-20T04:54:58;94118.00;;;30.52;26.20
1926;BME280;964;42.606;23.588;2023-04-20T04:57:25;94119.72;;;30.49;25.88
1926;BME280;964;42.606;23.588;2023-04-20T04:59:51;94124.06;;;30.30;25.96
1926;BME280;964;42.606;23.588;2023-04-20T05:02:18;94127.78;;;30.33;26.18
1926;BME280;964;42.606;23.588;2023-04-20T05:04:45;94122.25;;;30.22;26.18
1926;BME280;964;42.606;23.588;2023-04-20T05:07:14;94123.81;;;30.34;26.17
1926;BME280;964;42.606;23.588;2023-04-20T05:09:41;94123.84;;;30.39;26.31
1926;BME280;964;42.606;23.588;2023-04-20T05:12:08;94132.16;;;30.50;26.05
1926;BME280;964;42.606;23.588;2023-04-20T05:14:35;94117.38;;;30.74;25.65
1926;BME280;964;42.606;23.588;2023-04-20T05:17:02;94130.78;;;29.98;26.71
1926;BME280;964;42.606;23.588;2023-04-20T05:19:28;94119.84;;;30.72;26.01
1926;BME280;964;42.606;23.588;2023-04-20T05:21:55;94126.13;;;30.09;26.71
1926;BME280;964;42.606;23.588;2023-04-20T05:24:24;94122.91;;;30.42;26.51
1926;BME280;964;42.606;23.588;2023-04-20T05:26:51;94121.28;;;30.61;26.09
1926;BME280;964;42.606;23.588;2023-04-20T05:29:18;94124.50;;;30.23;26.88
1926;BME280;964;42.606;23.588;2023-04-20T05:31:45;94130.19;;;30.20;26.75
1926;BME280;964;42.606;23.588;2023-04-20T05:34:12;94125.97;;;30.24;26.91
1926;BME280;964;42.606;23.588;2023-04-20T05:36:39;94138.16;;;30.54;26.34
1926;BME280;964;42.606;23.588;2023-04-20T05:39:06;94136.91;;;29.87;26.91
1926;BME280;964;42.606;23.588;2023-04-20T05:41:34;94137.97;;;30.63;26.08
1926;BME280;964;42.606;23.588;2023-04-20T05:44:01;94136.47;;;30.31;26.35
1926;BME280;964;42.606;23.588;2023-04-20T05:46:28;94131.31;;;30.76;26.19
1926;BME280;964;42.606;23.588;2023-04-20T05:48:55;94134.19;;;30.55;25.92
1926;BME280;964;42.606;23.588;2023-04-20T05:51:21;94128.38;;;30.42;26.25
1926;BME280;964;42.606;23.588;2023-04-20T05:53:50;94128.22;;;30.20;26.56
1926;BME280;964;42.606;23.588;2023-04-20T05:56:17;94125.47;;;30.51;26.58
1926;BME280;964;42.606;23.588;2023-04-20T05:58:45;94135.06;;;30.78;26.19
1926;BME280;964;42.606;23.588;2023-04-20T06:01:12;94121.66;;;30.86;25.97
1926;BME280;964;42.606;23.588;2023-04-20T06:03:39;94126.63;;;30.82;26.01
1926;BME280;964;42.606;23.588;2023-04-20T06:06:06;94127.75;;;30.58;25.96
1926;BME280;964;42.606;23.588;2023-04-20T06:08:33;94140.00;;;29.80;26.94
1926;BME280;964;42.606;23.588;2023-04-20T06:11:00;94147.59;;;29.91;26.84
1926;BME280;964;42.606;23.588;2023-04-20T06:13:27;94134.25;;;30.35;26.72
1926;BME280;964;42.606;23.588;2023-04-20T06:15:55;94141.19;;;30.67;26.20
1926;BME280;964;42.606;23.588;2023-04-20T06:18:22;94141.38;;;30.22;26.80
1926;BME280;964;42.606;23.588;2023-04-20T06:20:49;94141.44;;;30.27;27.06
1926;BME280;964;42.606;23.588;2023-04-20T06:23:16;94135.84;;;30.90;26.44
1926;BME280;964;42.606;23.588;2023-04-20T06:25:43;94134.97;;;31.04;26.58
1926;BME280;964;42.606;23.588;2023-04-20T06:28:09;94135.94;;;31.01;26.51
1926;BME280;964;42.606;23.588;2023-04-20T06:30:36;94149.75;;;31.34;26.25
1926;BME280;964;42.606;23.588;2023-04-20T06:33:05;94144.34;;;30.92;26.76
1926;BME280;964;42.606;23.588;2023-04-20T06:35:32;94142.91;;;31.02;26.04
1926;BME280;964;42.606;23.588;2023-04-20T06:37:59;94141.31;;;30.90;26.38
1926;BME280;964;42.606;23.588;2023-04-20T06:40:27;94148.00;;;30.83;26.13
1926;BME280;964;42.606;23.588;2023-04-20T06:42:54;94152.09;;;30.56;26.89
1926;BME280;964;42.606;23.588;2023-04-20T06:45:21;94148.94;;;30.69;26.33
1926;BME280;964;42.606;23.588;2023-04-20T06:47:48;94154.00;;;30.82;26.05
1926;BME280;964;42.606;23.588;2023-04-20T06:50:16;94152.03;;;30.88;26.80
1926;BME280;964;42.606;23.588;2023-04-20T06:52:43;94147.06;;;30.92;26.33
1926;BME280;964;42.606;23.588;2023-04-20T06:55:12;94149.88;;;31.03;26.48
1926;BME280;964;42.606;23.588;2023-04-20T06:57:39;94157.44;;;31.25;26.62
1926;BME280;964;42.606;23.588;2023-04-20T07:00:09;94143.00;;;31.24;26.36
1926;BME280;964;42.606;23.588;2023-04-20T07:02:43;94151.94;;;31.19;26.06
1926;BME280;964;42.606;23.588;2023-04-20T07:05:11;94157.22;;;31.34;26.15
1926;BME280;964;42.606;23.588;2023-04-20T07:07:39;94161.34;;;30.33;27.40
1926;BME280;964;42.606;23.588;2023-04-20T07:10:06;94156.22;;;31.26;26.60
1926;BME280;964;42.606;23.588;2023-04-20T07:12:34;94164.47;;;31.42;26.33
1926;BME280;964;42.606;23.588;2023-04-20T07:15:05;94166.47;;;30.88;27.00
1926;BME280;964;42.606;23.588;2023-04-20T07:17:33;94162.75;;;30.97;27.30
1926;BME280;964;42.606;23.588;2023-04-20T07:20:00;94163.09;;;30.67;26.97
1926;BME280;964;42.606;23.588;2023-04-20T07:22:31;94167.59;;;30.71;27.12
1926;BME280;964;42.606;23.588;2023-04-20T07:25:00;94162.34;;;31.04;27.29
1926;BME280;964;42.606;23.588;2023-04-20T07:27:28;94160.13;;;31.84;26.28
1926;BME280;964;42.606;23.588;2023-04-20T07:29:55;94156.06;;;31.63;25.29
1926;BME280;964;42.606;23.588;2023-04-20T07:32:22;94163.81;;;30.99;25.91
1926;BME280;964;42.606;23.588;2023-04-20T07:34:49;94166.41;;;31.25;26.32
1926;BME280;964;42.606;23.588;2023-04-20T07:37:16;94156.13;;;31.85;25.98
1926;BME280;964;42.606;23.588;2023-04-20T07:39:42;94153.44;;;31.20;25.71
1926;BME280;964;42.606;23.588;2023-04-20T07:42:11;94157.44;;;30.77;26.31
1926;BME280;964;42.606;23.588;2023-04-20T07:44:41;94162.75;;;30.97;27.31
1926;BME280;964;42.606;23.588;2023-04-20T07:47:08;94161.34;;;30.64;26.96
1926;BME280;964;42.606;23.588;2023-04-20T07:49:35;94168.31;;;30.34;26.79
1926;BME280;964;42.606;23.588;2023-04-20T07:52:05;94165.56;;;31.02;25.86
1926;BME280;964;42.606;23.588;2023-04-20T07:54:32;94176.69;;;30.25;26.86
1926;BME280;964;42.606;23.588;2023-04-20T07:56:59;94168.56;;;30.67;26.92
1926;BME280;964;42.606;23.588;2023-04-20T07:59:27;94166.28;;;30.60;26.41
1926;BME280;964;42.606;23.588;2023-04-20T08:01:57;94166.50;;;30.26;26.37
1926;BME280;964;42.606;23.588;2023-04-20T08:04:25;94165.25;;;30.52;26.66
1926;BME280;964;42.606;23.588;2023-04-20T08:06:52;94165.72;;;30.51;26.26
1926;BME280;964;42.606;23.588;2023-04-20T08:09:19;94168.84;;;30.38;26.23
1926;BME280;964;42.606;23.588;2023-04-20T08:11:46;94172.94;;;30.48;25.97
1926;BME280;964;42.606;23.588;2023-04-20T08:14:13;94172.97;;;30.28;26.95
1926;BME280;964;42.606;23.588;2023-04-20T08:16:41;94153.63;;;31.76;25.44
1926;BME280;964;42.606;23.588;2023-04-20T08:19:08;94158.97;;;31.31;25.42
1926;BME280;964;42.606;23.588;2023-04-20T08:21:36;94156.63;;;31.89;25.08
1926;BME280;964;42.606;23.588;2023-04-20T08:24:03;94159.78;;;30.95;25.70
1926;BME280;964;42.606;23.588;2023-04-20T08:26:30;94160.94;;;30.77;25.32
1926;BME280;964;42.606;23.588;2023-04-20T08:28:58;94165.66;;;30.77;25.86
1926;BME280;964;42.606;23.588;2023-04-20T08:31:25;94159.63;;;31.80;24.87
1926;BME280;964;42.606;23.588;2023-04-20T08:33:53;94169.72;;;30.92;26.00
1926;BME280;964;42.606;23.588;2023-04-20T08:36:20;94172.56;;;30.67;26.35
1926;BME280;964;42.606;23.588;2023-04-20T08:38:52;94175.59;;;30.80;26.61
1926;BME280;964;42.606;23.588;2023-04-20T08:41:20;94169.84;;;30.72;26.17
1926;BME280;964;42.606;23.588;2023-04-20T08:43:46;94169.06;;;30.35;27.04
1926;BME280;964;42.606;23.588;2023-04-20T08:46:15;94172.31;;;30.70;26.58
1926;BME280;964;42.606;23.588;2023-04-20T08:48:45;94166.38;;;30.40;26.32
1926;BME280;964;42.606;23.588;2023-04-20T08:51:15;94170.97;;;30.54;26.66
1926;BME280;964;42.606;23.588;2023-04-20T08:53:42;94171.78;;;29.78;27.38
1926;BME280;964;42.606;23.588;2023-04-20T08:56:10;94172.97;;;30.28;26.49
1926;BME280;964;42.606;23.588;2023-04-20T08:58:37;94165.41;;;30.80;26.25
1926;BME280;964;42.606;23.588;2023-04-20T09:01:07;94166.03;;;30.58;26.68
1926;BME280;964;42.606;23.588;2023-04-20T09:03:35;94155.66;;;31.16;25.77
1926;BME280;964;42.606;23.588;2023-04-20T09:06:03;94158.09;;;31.03;25.69
1926;BME280;964;42.606;23.588;2023-04-20T09:08:36;94160.28;;;31.52;25.63
1926;BME280;964;42.606;23.588;2023-04-20T09:11:03;94162.56;;;31.71;25.73
1926;BME280;964;42.606;23.588;2023-04-20T09:13:30;94160.00;;;31.39;25.64
1926;BME280;964;42.606;23.588;2023-04-20T09:16:08;94164.06;;;31.60;25.62
1926;BME280;964;42.606;23.588;2023-04-20T09:18:35;94164.19;;;30.87;25.56
1926;BME280;964;42.606;23.588;2023-04-20T09:21:07;94156.94;;;31.26;25.60
1926;BME280;964;42.606;23.588;2023-04-20T09:23:35;94157.69;;;30.79;25.62
1926;BME280;964;42.606;23.588;2023-04-20T09:26:03;94157.06;;;31.00;25.37
1926;BME280;964;42.606;23.588;2023-04-20T09:28:34;94154.91;;;31.10;24.92
1926;BME280;964;42.606;23.588;2023-04-20T09:31:03;94144.41;;;31.84;24.33
1926;BME280;964;42.606;23.588;2023-04-20T09:33:30;94147.13;;;31.68;24.65
1926;BME280;964;42.606;23.588;2023-04-20T09:36:02;94147.63;;;31.72;24.58
1926;BME280;964;42.606;23.588;2023-04-20T09:38:30;94145.72;;;32.33;23.80
1926;BME280;964;42.606;23.588;2023-04-20T09:40:59;94138.94;;;32.51;24.17
1926;BME280;964;42.606;23.588;2023-04-20T09:43:27;94137.13;;;32.98;23.83
1926;BME280;964;42.606;23.588;2023-04-20T09:45:55;94142.22;;;32.22;23.98
1926;BME280;964;42.606;23.588;2023-04-20T09:48:22;94140.97;;;32.45;24.31
1926;BME280;964;42.606;23.588;2023-04-20T09:50:49;94144.19;;;32.10;23.98
1926;BME280;964;42.606;23.588;2023-04-20T09:53:16;94134.69;;;31.89;24.75
1926;BME280;964;42.606;23.588;2023-04-20T09:55:45;94133.63;;;32.97;24.14
1926;BME280;964;42.606;23.588;2023-04-20T09:58:14;94136.72;;;32.05;24.42
1926;BME280;964;42.606;23.588;2023-04-20T10:00:43;94118.63;;;33.15;23.03
1926;BME280;964;42.606;23.588;2023-04-20T10:03:10;94115.72;;;32.80;23.39
1926;BME280;964;42.606;23.588;2023-04-20T10:05:37;94119.28;;;32.41;23.94
1926;BME280;964;42.606;23.588;2023-04-20T10:08:05;94115.56;;;33.24;23.67
1926;BME280;964;42.606;23.588;2023-04-20T10:10:42;94113.41;;;32.95;23.36
1926;BME280;964;42.606;23.588;2023-04-20T10:13:09;94108.41;;;33.57;23.30
1926;BME280;964;42.606;23.588;2023-04-20T10:15:38;94099.44;;;34.27;22.17
1926;BME280;964;42.606;23.588;2023-04-20T10:18:15;94105.88;;;33.70;22.93
1926;BME280;964;42.606;23.588;2023-04-20T10:21:04;94090.41;;;35.23;21.80
1926;BME280;964;42.606;23.588;2023-04-20T10:23:33;94100.00;;;34.74;22.34
1926;BME280;964;42.606;23.588;2023-04-20T10:26:00;94087.31;;;35.70;21.85
1926;BME280;964;42.606;23.588;2023-04-20T10:28:37;94087.66;;;36.11;21.13
1926;BME280;964;42.606;23.588;2023-04-20T10:31:07;94089.34;;;35.82;21.88
1926;BME280;964;42.606;23.588;2023-04-20T10:33:50;94072.81;;;37.59;19.70
1926;BME280;964;42.606;23.588;2023-04-20T10:36:22;94076.09;;;36.97;20.36
1926;BME280;964;42.606;23.588;2023-04-20T10:38:50;94075.38;;;37.44;20.40
1926;BME280;964;42.606;23.588;2023-04-20T10:41:17;94072.06;;;38.54;19.29
1926;BME280;964;42.606;23.588;2023-04-20T10:43:44;94072.50;;;37.02;20.52
1926;BME280;964;42.606;23.588;2023-04-20T10:46:16;94079.47;;;37.16;19.79
1926;BME280;964;42.606;23.588;2023-04-20T10:48:50;94073.69;;;38.50;19.13
1926;BME280;964;42.606;23.588;2023-04-20T10:51:17;94068.81;;;38.22;18.56
1926;BME280;964;42.606;23.588;2023-04-20T10:53:44;94079.84;;;37.60;19.85
1926;BME280;964;42.606;23.588;2023-04-20T10:56:11;94078.88;;;36.71;20.40
1926;BME280;964;42.606;23.588;2023-04-20T10:58:38;94082.66;;;37.20;19.79
1926;BME280;964;42.606;23.588;2023-04-20T11:01:05;94086.84;;;35.84;20.67
1926;BME280;964;42.606;23.588;2023-04-20T11:03:34;94090.13;;;36.73;19.86
1926;BME280;964;42.606;23.588;2023-04-20T11:06:01;94084.44;;;36.07;19.93
1926;BME280;964;42.606;23.588;2023-04-20T11:08:35;94079.88;;;36.28;20.55
1926;BME280;964;42.606;23.588;2023-04-20T11:11:03;94084.41;;;35.94;20.88
1926;BME280;964;42.606;23.588;2023-04-20T11:13:30;94097.97;;;34.50;21.08
1926;BME280;964;42.606;23.588;2023-04-20T11:15:58;94088.19;;;35.22;21.05
1926;BME280;964;42.606;23.588;2023-04-20T11:18:24;94084.97;;;34.75;20.60
1926;BME280;964;42.606;23.588;2023-04-20T11:20:53;94079.06;;;36.60;19.68
1926;BME280;964;42.606;23.588;2023-04-20T11:23:22;94085.91;;;35.95;20.48
1926;BME280;964;42.606;23.588;2023-04-20T11:25:54;94081.13;;;36.41;19.37
1926;BME280;964;42.606;23.588;2023-04-20T11:28:21;94073.41;;;36.52;19.49
1926;BME280;964;42.606;23.588;2023-04-20T11:30:48;94075.41;;;36.52;19.39
1926;BME280;964;42.606;23.588;2023-04-20T11:33:24;94077.56;;;36.46;19.76
1926;BME280;964;42.606;23.588;2023-04-20T11:35:54;94084.63;;;35.96;20.37
1926;BME280;964;42.606;23.588;2023-04-20T11:38:29;94075.88;;;36.69;19.57
1926;BME280;964;42.606;23.588;2023-04-20T11:40:56;94076.75;;;35.87;20.70
1926;BME280;964;42.606;23.588;2023-04-20T11:43:29;94078.41;;;36.54;20.55
1926;BME280;964;42.606;23.588;2023-04-20T11:45:55;94065.44;;;36.04;20.99
1926;BME280;964;42.606;23.588;2023-04-20T11:48:22;94068.63;;;36.53;19.73
1926;BME280;964;42.606;23.588;2023-04-20T11:50:50;94066.03;;;36.15;20.35
1926;BME280;964;42.606;23.588;2023-04-20T11:53:18;94073.06;;;35.98;19.68
1926;BME280;964;42.606;23.588;2023-04-20T11:55:45;94075.84;;;34.85;21.06
1926;BME280;964;42.606;23.588;2023-04-20T11:58:12;94074.03;;;34.88;20.83
1926;BME280;964;42.606;23.588;2023-04-20T12:00:39;94078.63;;;34.56;20.88
1926;BME280;964;42.606;23.588;2023-04-20T12:03:08;94070.28;;;35.10;21.12
1926;BME280;964;42.606;23.588;2023-04-20T12:05:35;94074.84;;;34.34;21.71
1926;BME280;964;42.606;23.588;2023-04-20T12:08:02;94085.34;;;34.06;21.79
1926;BME280;964;42.606;23.588;2023-04-20T12:10:30;94092.41;;;34.31;21.96
1926;BME280;964;42.606;23.588;2023-04-20T12:12:57;94087.09;;;33.27;22.94
1926;BME280;964;42.606;23.588;2023-04-20T12:15:28;94090.47;;;32.87;23.19
1926;BME280;964;42.606;23.588;2023-04-20T12:17:55;94082.38;;;33.22;23.33
1926;BME280;964;42.606;23.588;2023-04-20T12:20:22;94087.16;;;33.05;23.21
1926;BME280;964;42.606;23.588;2023-04-20T12:22:49;94082.59;;;34.06;23.05
1926;BME280;964;42.606;23.588;2023-04-20T12:25:16;94092.53;;;33.38;22.70
1926;BME280;964;42.606;23.588;2023-04-20T12:27:44;94082.28;;;34.39;21.48
1926;BME280;964;42.606;23.588;2023-04-20T12:30:11;94081.09;;;34.35;21.64
1926;BME280;964;42.606;23.588;2023-04-20T12:32:38;94083.53;;;34.14;21.57
1926;BME280;964;42.606;23.588;2023-04-20T12:35:06;94082.00;;;34.43;21.60
1926;BME280;964;42.606;23.588;2023-04-20T12:37:33;94071.47;;;34.47;21.33
1926;BME280;964;42.606;23.588;2023-04-20T12:40:01;94060.28;;;34.88;21.85
1926;BME280;964;42.606;23.588;2023-04-20T12:42:30;94051.63;;;35.21;22.00
1926;BME280;964;42.606;23.588;2023-04-20T12:44:59;94061.50;;;35.11;21.98
1926;BME280;964;42.606;23.588;2023-04-20T12:47:25;94049.94;;;36.46;21.06
1926;BME280;964;42.606;23.588;2023-04-20T12:49:52;94064.97;;;34.93;22.17
1926;BME280;964;42.606;23.588;2023-04-20T12:52:19;94068.94;;;33.95;21.62
1926;BME280;964;42.606;23.588;2023-04-20T12:54:46;94065.88;;;34.28;21.17
1926;BME280;964;42.606;23.588;2023-04-20T12:57:13;94079.28;;;32.85;23.06
1926;BME280;964;42.606;23.588;2023-04-20T12:59:39;94084.22;;;32.92;23.89
1926;BME280;964;42.606;23.588;2023-04-20T13:02:08;94077.34;;;33.73;23.61
1926;BME280;964;42.606;23.588;2023-04-20T13:04:35;94081.13;;;32.27;24.56
1926;BME280;964;42.606;23.588;2023-04-20T13:07:02;94091.88;;;32.08;24.62
1926;BME280;964;42.606;23.588;2023-04-20T13:09:29;94092.81;;;31.60;25.60
1926;BME280;964;42.606;23.588;2023-04-20T13:11:56;94099.88;;;30.54;27.63
1926;BME280;964;42.606;23.588;2023-04-20T13:14:24;94106.88;;;29.41;26.79
1926;BME280;964;42.606;23.588;2023-04-20T13:16:51;94117.72;;;30.44;27.06
1926;BME280;964;42.606;23.588;2023-04-20T13:19:19;94119.47;;;30.47;28.26
1926;BME280;964;42.606;23.588;2023-04-20T13:21:46;94120.34;;;31.18;27.86
1926;BME280;964;42.606;23.588;2023-04-20T13:24:12;94116.25;;;31.73;27.04
1926;BME280;964;42.606;23.588;2023-04-20T13:26:39;94109.44;;;32.96;26.11